Riverton, Wyoming
Current Conditions -  °F | °C
As of 2:53 AM on Saturday 22 Nov 2014 (Local Time) from KRIW Reporting Station
Clear Clear  
Wind Chill: 25°   Ceiling: Unl
Heat Index: 25°   Visibility: 10mi
Dew Point: 17°   Wind: 0mph
Humidity: 72%   Direction: NA
Pressure: 29.73"   Gusts: NA
Location:  43.02°N, 108.38°W
Report Text: KRIW 220953Z AUTO 00000KT 10SM CLR M04/M08 A2973 RMK AO2 SLP089 T10391083
Loading
Personal Weather Stations






























Interactive Weather Map New forecast layout! Learn more

10-Day Weather Forecast

Advertisements
Track Severe Weather on mobile